sensor_id;sensor_type;location;lat;lon;timestamp;P1;durP1;ratioP1;P2;durP2;ratioP2
65855;SDS011;52631;42.208;24.656;2023-02-15T00:00:25;19.95;;;10.73;;
65855;SDS011;52631;42.208;24.656;2023-02-15T00:02:51;20.27;;;10.00;;
65855;SDS011;52631;42.208;24.656;2023-02-15T00:05:16;20.30;;;10.55;;
65855;SDS011;52631;42.208;24.656;2023-02-15T00:07:43;17.17;;;9.40;;
65855;SDS011;52631;42.208;24.656;2023-02-15T00:10:08;17.15;;;9.48;;
65855;SDS011;52631;42.208;24.656;2023-02-15T00:12:34;22.75;;;11.30;;
65855;SDS011;52631;42.208;24.656;2023-02-15T00:14:59;22.85;;;11.85;;
65855;SDS011;52631;42.208;24.656;2023-02-15T00:17:28;21.20;;;10.10;;
65855;SDS011;52631;42.208;24.656;2023-02-15T00:19:53;19.40;;;10.15;;
65855;SDS011;52631;42.208;24.656;2023-02-15T00:22:19;23.58;;;11.15;;
65855;SDS011;52631;42.208;24.656;2023-02-15T00:24:45;22.90;;;10.18;;
65855;SDS011;52631;42.208;24.656;2023-02-15T00:27:10;24.88;;;12.07;;
65855;SDS011;52631;42.208;24.656;2023-02-15T00:29:36;18.70;;;9.13;;
65855;SDS011;52631;42.208;24.656;2023-02-15T00:32:01;21.50;;;10.45;;
65855;SDS011;52631;42.208;24.656;2023-02-15T00:34:27;20.67;;;10.23;;
65855;SDS011;52631;42.208;24.656;2023-02-15T00:36:53;20.20;;;8.52;;
65855;SDS011;52631;42.208;24.656;2023-02-15T00:39:19;21.75;;;10.52;;
65855;SDS011;52631;42.208;24.656;2023-02-15T00:41:45;17.83;;;9.27;;
65855;SDS011;52631;42.208;24.656;2023-02-15T00:44:11;20.95;;;10.32;;
65855;SDS011;52631;42.208;24.656;2023-02-15T00:46:36;21.63;;;9.85;;
65855;SDS011;52631;42.208;24.656;2023-02-15T00:49:02;23.95;;;11.18;;
65855;SDS011;52631;42.208;24.656;2023-02-15T00:54:03;21.08;;;10.25;;
65855;SDS011;52631;42.208;24.656;2023-02-15T00:56:29;21.27;;;10.93;;
65855;SDS011;52631;42.208;24.656;2023-02-15T00:58:54;21.85;;;9.75;;
65855;SDS011;52631;42.208;24.656;2023-02-15T01:01:20;22.90;;;11.27;;
65855;SDS011;52631;42.208;24.656;2023-02-15T01:03:48;24.88;;;11.68;;
65855;SDS011;52631;42.208;24.656;2023-02-15T01:06:14;25.60;;;12.80;;
65855;SDS011;52631;42.208;24.656;2023-02-15T01:08:40;25.65;;;11.07;;
65855;SDS011;52631;42.208;24.656;2023-02-15T01:11:07;23.52;;;11.00;;
65855;SDS011;52631;42.208;24.656;2023-02-15T01:13:36;20.27;;;10.53;;
65855;SDS011;52631;42.208;24.656;2023-02-15T01:16:02;25.83;;;12.20;;
65855;SDS011;52631;42.208;24.656;2023-02-15T01:18:28;24.38;;;11.23;;
65855;SDS011;52631;42.208;24.656;2023-02-15T01:20:54;26.38;;;11.73;;
65855;SDS011;52631;42.208;24.656;2023-02-15T01:23:20;26.25;;;12.25;;
65855;SDS011;52631;42.208;24.656;2023-02-15T01:25:45;27.10;;;12.02;;
65855;SDS011;52631;42.208;24.656;2023-02-15T01:28:11;26.42;;;11.35;;
65855;SDS011;52631;42.208;24.656;2023-02-15T01:30:37;26.23;;;11.52;;
65855;SDS011;52631;42.208;24.656;2023-02-15T01:33:02;21.50;;;10.70;;
65855;SDS011;52631;42.208;24.656;2023-02-15T01:35:28;25.85;;;11.77;;
65855;SDS011;52631;42.208;24.656;2023-02-15T01:37:54;21.33;;;10.57;;
65855;SDS011;52631;42.208;24.656;2023-02-15T01:40:20;30.08;;;13.32;;
65855;SDS011;52631;42.208;24.656;2023-02-15T01:42:49;22.98;;;11.07;;
65855;SDS011;52631;42.208;24.656;2023-02-15T01:58:25;19.92;;;10.10;;
65855;SDS011;52631;42.208;24.656;2023-02-15T02:00:54;22.73;;;10.00;;
65855;SDS011;52631;42.208;24.656;2023-02-15T02:03:23;25.98;;;12.00;;
65855;SDS011;52631;42.208;24.656;2023-02-15T02:06:04;28.88;;;12.73;;
65855;SDS011;52631;42.208;24.656;2023-02-15T02:08:29;27.88;;;12.20;;
65855;SDS011;52631;42.208;24.656;2023-02-15T02:10:55;25.48;;;11.88;;
65855;SDS011;52631;42.208;24.656;2023-02-15T02:13:21;27.25;;;12.18;;
65855;SDS011;52631;42.208;24.656;2023-02-15T02:16:20;25.67;;;11.52;;
65855;SDS011;52631;42.208;24.656;2023-02-15T02:27:03;27.05;;;12.55;;
65855;SDS011;52631;42.208;24.656;2023-02-15T02:30:00;30.85;;;13.40;;
65855;SDS011;52631;42.208;24.656;2023-02-15T02:38:27;27.30;;;11.43;;
65855;SDS011;52631;42.208;24.656;2023-02-15T02:43:33;32.38;;;12.68;;
65855;SDS011;52631;42.208;24.656;2023-02-15T02:46:25;25.83;;;12.77;;
65855;SDS011;52631;42.208;24.656;2023-02-15T02:48:53;25.60;;;12.43;;
65855;SDS011;52631;42.208;24.656;2023-02-15T02:51:19;29.73;;;11.98;;
65855;SDS011;52631;42.208;24.656;2023-02-15T02:53:52;27.67;;;12.27;;
65855;SDS011;52631;42.208;24.656;2023-02-15T02:59:05;30.00;;;12.60;;
65855;SDS011;52631;42.208;24.656;2023-02-15T03:01:40;28.50;;;12.00;;
65855;SDS011;52631;42.208;24.656;2023-02-15T03:04:12;28.77;;;12.52;;
65855;SDS011;52631;42.208;24.656;2023-02-15T03:06:50;30.38;;;12.63;;
65855;SDS011;52631;42.208;24.656;2023-02-15T03:11:48;35.55;;;12.65;;
65855;SDS011;52631;42.208;24.656;2023-02-15T03:14:14;29.33;;;12.32;;
65855;SDS011;52631;42.208;24.656;2023-02-15T03:16:41;33.58;;;13.88;;
65855;SDS011;52631;42.208;24.656;2023-02-15T03:19:09;29.98;;;13.35;;
65855;SDS011;52631;42.208;24.656;2023-02-15T03:21:48;32.35;;;13.88;;
65855;SDS011;52631;42.208;24.656;2023-02-15T03:24:23;34.08;;;13.77;;
65855;SDS011;52631;42.208;24.656;2023-02-15T03:26:51;31.13;;;14.38;;
65855;SDS011;52631;42.208;24.656;2023-02-15T03:29:19;24.55;;;11.73;;
65855;SDS011;52631;42.208;24.656;2023-02-15T03:31:46;29.88;;;13.05;;
65855;SDS011;52631;42.208;24.656;2023-02-15T03:34:15;26.45;;;11.35;;
65855;SDS011;52631;42.208;24.656;2023-02-15T03:45:02;15.98;;;8.07;;
65855;SDS011;52631;42.208;24.656;2023-02-15T03:47:31;26.67;;;10.50;;
65855;SDS011;52631;42.208;24.656;2023-02-15T03:50:08;29.67;;;12.48;;
65855;SDS011;52631;42.208;24.656;2023-02-15T03:52:57;23.92;;;11.45;;
65855;SDS011;52631;42.208;24.656;2023-02-15T03:55:24;29.42;;;12.25;;
65855;SDS011;52631;42.208;24.656;2023-02-15T03:57:49;25.85;;;11.52;;
65855;SDS011;52631;42.208;24.656;2023-02-15T04:00:35;26.17;;;11.45;;
65855;SDS011;52631;42.208;24.656;2023-02-15T04:03:35;25.02;;;11.80;;
65855;SDS011;52631;42.208;24.656;2023-02-15T04:06:02;22.30;;;10.98;;
65855;SDS011;52631;42.208;24.656;2023-02-15T04:08:28;27.45;;;11.43;;
65855;SDS011;52631;42.208;24.656;2023-02-15T04:11:12;23.15;;;10.98;;
65855;SDS011;52631;42.208;24.656;2023-02-15T04:13:38;19.80;;;10.10;;
65855;SDS011;52631;42.208;24.656;2023-02-15T04:16:03;19.60;;;10.13;;
65855;SDS011;52631;42.208;24.656;2023-02-15T04:18:29;21.35;;;10.65;;
65855;SDS011;52631;42.208;24.656;2023-02-15T04:21:24;23.88;;;11.52;;
65855;SDS011;52631;42.208;24.656;2023-02-15T04:24:09;25.85;;;12.15;;
65855;SDS011;52631;42.208;24.656;2023-02-15T04:26:53;21.58;;;10.18;;
65855;SDS011;52631;42.208;24.656;2023-02-15T04:29:20;23.58;;;9.68;;
65855;SDS011;52631;42.208;24.656;2023-02-15T04:31:46;23.42;;;10.88;;
65855;SDS011;52631;42.208;24.656;2023-02-15T04:34:12;22.58;;;10.02;;
65855;SDS011;52631;42.208;24.656;2023-02-15T04:36:38;21.77;;;11.40;;
65855;SDS011;52631;42.208;24.656;2023-02-15T04:39:04;26.30;;;10.63;;
65855;SDS011;52631;42.208;24.656;2023-02-15T04:41:29;20.38;;;10.55;;
65855;SDS011;52631;42.208;24.656;2023-02-15T04:43:55;23.95;;;11.50;;
65855;SDS011;52631;42.208;24.656;2023-02-15T04:46:21;25.70;;;11.93;;
65855;SDS011;52631;42.208;24.656;2023-02-15T04:48:46;29.60;;;13.75;;
65855;SDS011;52631;42.208;24.656;2023-02-15T04:51:12;27.25;;;12.02;;
65855;SDS011;52631;42.208;24.656;2023-02-15T04:53:37;28.92;;;12.25;;
65855;SDS011;52631;42.208;24.656;2023-02-15T04:56:03;27.48;;;11.98;;
65855;SDS011;52631;42.208;24.656;2023-02-15T04:58:28;22.52;;;11.02;;
65855;SDS011;52631;42.208;24.656;2023-02-15T05:00:55;23.25;;;10.93;;
65855;SDS011;52631;42.208;24.656;2023-02-15T05:03:21;26.80;;;10.63;;
65855;SDS011;52631;42.208;24.656;2023-02-15T05:05:47;29.77;;;12.25;;
65855;SDS011;52631;42.208;24.656;2023-02-15T05:08:12;21.80;;;9.27;;
65855;SDS011;52631;42.208;24.656;2023-02-15T05:10:38;30.90;;;12.68;;
65855;SDS011;52631;42.208;24.656;2023-02-15T05:13:03;25.90;;;12.93;;
65855;SDS011;52631;42.208;24.656;2023-02-15T05:15:29;27.92;;;12.85;;
65855;SDS011;52631;42.208;24.656;2023-02-15T05:17:54;26.90;;;12.40;;
65855;SDS011;52631;42.208;24.656;2023-02-15T05:20:20;21.70;;;9.90;;
65855;SDS011;52631;42.208;24.656;2023-02-15T05:22:45;31.40;;;12.77;;
65855;SDS011;52631;42.208;24.656;2023-02-15T05:25:11;26.17;;;12.70;;
65855;SDS011;52631;42.208;24.656;2023-02-15T05:27:55;27.77;;;13.20;;
65855;SDS011;52631;42.208;24.656;2023-02-15T05:30:39;25.50;;;12.65;;
65855;SDS011;52631;42.208;24.656;2023-02-15T05:33:05;22.05;;;9.45;;
65855;SDS011;52631;42.208;24.656;2023-02-15T05:35:31;22.50;;;10.07;;
65855;SDS011;52631;42.208;24.656;2023-02-15T05:37:57;23.23;;;9.80;;
65855;SDS011;52631;42.208;24.656;2023-02-15T05:40:23;23.35;;;12.70;;
65855;SDS011;52631;42.208;24.656;2023-02-15T05:42:48;28.27;;;13.45;;
65855;SDS011;52631;42.208;24.656;2023-02-15T05:45:14;23.23;;;10.68;;
65855;SDS011;52631;42.208;24.656;2023-02-15T05:47:40;26.52;;;12.60;;
65855;SDS011;52631;42.208;24.656;2023-02-15T05:50:06;27.52;;;12.55;;
65855;SDS011;52631;42.208;24.656;2023-02-15T05:52:31;20.75;;;10.05;;
65855;SDS011;52631;42.208;24.656;2023-02-15T05:54:57;28.23;;;12.93;;
65855;SDS011;52631;42.208;24.656;2023-02-15T05:57:25;26.83;;;11.90;;
65855;SDS011;52631;42.208;24.656;2023-02-15T05:59:51;30.58;;;15.35;;
65855;SDS011;52631;42.208;24.656;2023-02-15T06:02:16;27.25;;;13.15;;
65855;SDS011;52631;42.208;24.656;2023-02-15T06:04:42;32.92;;;14.32;;
65855;SDS011;52631;42.208;24.656;2023-02-15T06:07:07;20.45;;;10.07;;
65855;SDS011;52631;42.208;24.656;2023-02-15T06:09:32;32.28;;;14.40;;
65855;SDS011;52631;42.208;24.656;2023-02-15T06:11:58;36.20;;;14.93;;
65855;SDS011;52631;42.208;24.656;2023-02-15T06:14:23;30.33;;;13.27;;
65855;SDS011;52631;42.208;24.656;2023-02-15T06:16:49;27.67;;;12.38;;
65855;SDS011;52631;42.208;24.656;2023-02-15T06:19:14;27.88;;;13.93;;
65855;SDS011;52631;42.208;24.656;2023-02-15T06:21:40;31.17;;;13.80;;
65855;SDS011;52631;42.208;24.656;2023-02-15T06:24:05;29.58;;;14.60;;
65855;SDS011;52631;42.208;24.656;2023-02-15T06:26:32;29.95;;;14.23;;
65855;SDS011;52631;42.208;24.656;2023-02-15T06:28:58;29.05;;;14.95;;
65855;SDS011;52631;42.208;24.656;2023-02-15T06:31:23;30.65;;;14.15;;
65855;SDS011;52631;42.208;24.656;2023-02-15T06:33:49;32.80;;;14.00;;
65855;SDS011;52631;42.208;24.656;2023-02-15T06:36:14;33.95;;;15.07;;
65855;SDS011;52631;42.208;24.656;2023-02-15T06:38:40;32.22;;;15.57;;
65855;SDS011;52631;42.208;24.656;2023-02-15T06:41:05;33.42;;;16.23;;
65855;SDS011;52631;42.208;24.656;2023-02-15T06:43:30;28.85;;;14.90;;
65855;SDS011;52631;42.208;24.656;2023-02-15T06:45:56;33.40;;;13.38;;
65855;SDS011;52631;42.208;24.656;2023-02-15T06:48:21;35.70;;;16.17;;
65855;SDS011;52631;42.208;24.656;2023-02-15T06:50:47;31.10;;;14.82;;
65855;SDS011;52631;42.208;24.656;2023-02-15T06:53:14;29.60;;;15.00;;
65855;SDS011;52631;42.208;24.656;2023-02-15T06:55:39;33.20;;;15.30;;
65855;SDS011;52631;42.208;24.656;2023-02-15T06:58:05;35.22;;;15.68;;
65855;SDS011;52631;42.208;24.656;2023-02-15T07:00:32;30.17;;;14.15;;
65855;SDS011;52631;42.208;24.656;2023-02-15T07:02:58;30.38;;;14.10;;
65855;SDS011;52631;42.208;24.656;2023-02-15T07:05:27;27.77;;;12.95;;
65855;SDS011;52631;42.208;24.656;2023-02-15T07:07:59;33.38;;;14.52;;
65855;SDS011;52631;42.208;24.656;2023-02-15T07:10:25;28.17;;;12.40;;
65855;SDS011;52631;42.208;24.656;2023-02-15T07:12:52;23.25;;;11.90;;
65855;SDS011;52631;42.208;24.656;2023-02-15T07:15:18;23.95;;;12.00;;
65855;SDS011;52631;42.208;24.656;2023-02-15T07:17:46;24.73;;;11.88;;
65855;SDS011;52631;42.208;24.656;2023-02-15T07:20:13;20.92;;;9.68;;
65855;SDS011;52631;42.208;24.656;2023-02-15T11:37:19;12.60;;;7.63;;
65855;SDS011;52631;42.208;24.656;2023-02-15T11:39:46;11.88;;;7.63;;
65855;SDS011;52631;42.208;24.656;2023-02-15T11:42:18;13.63;;;7.40;;
65855;SDS011;52631;42.208;24.656;2023-02-15T11:47:24;13.32;;;7.45;;
65855;SDS011;52631;42.208;24.656;2023-02-15T11:49:51;9.25;;;5.93;;
65855;SDS011;52631;42.208;24.656;2023-02-15T11:52:16;21.35;;;7.65;;
65855;SDS011;52631;42.208;24.656;2023-02-15T11:54:44;17.75;;;9.32;;
65855;SDS011;52631;42.208;24.656;2023-02-15T11:57:15;12.00;;;7.18;;
65855;SDS011;52631;42.208;24.656;2023-02-15T11:59:45;14.52;;;7.30;;
65855;SDS011;52631;42.208;24.656;2023-02-15T12:02:18;13.20;;;8.15;;
65855;SDS011;52631;42.208;24.656;2023-02-15T12:05:29;16.70;;;7.97;;
65855;SDS011;52631;42.208;24.656;2023-02-15T12:07:42;9.85;;;5.97;;
65855;SDS011;52631;42.208;24.656;2023-02-15T12:10:24;12.43;;;7.28;;
65855;SDS011;52631;42.208;24.656;2023-02-15T12:13:11;11.98;;;7.72;;
65855;SDS011;52631;42.208;24.656;2023-02-15T12:15:38;11.63;;;6.57;;
65855;SDS011;52631;42.208;24.656;2023-02-15T12:18:31;10.18;;;6.65;;
65855;SDS011;52631;42.208;24.656;2023-02-15T12:21:02;11.43;;;6.68;;
65855;SDS011;52631;42.208;24.656;2023-02-15T12:23:31;23.35;;;11.75;;
65855;SDS011;52631;42.208;24.656;2023-02-15T12:25:57;12.15;;;7.40;;
65855;SDS011;52631;42.208;24.656;2023-02-15T12:28:24;12.82;;;6.68;;
65855;SDS011;52631;42.208;24.656;2023-02-15T12:30:50;11.57;;;7.32;;
65855;SDS011;52631;42.208;24.656;2023-02-15T12:33:30;12.30;;;7.55;;
65855;SDS011;52631;42.208;24.656;2023-02-15T12:36:17;15.63;;;8.88;;
65855;SDS011;52631;42.208;24.656;2023-02-15T12:39:31;23.88;;;11.65;;
65855;SDS011;52631;42.208;24.656;2023-02-15T12:41:45;18.35;;;9.73;;
65855;SDS011;52631;42.208;24.656;2023-02-15T12:44:16;12.68;;;7.07;;
65855;SDS011;52631;42.208;24.656;2023-02-15T12:46:51;11.68;;;7.13;;
65855;SDS011;52631;42.208;24.656;2023-02-15T12:49:23;11.93;;;6.43;;
65855;SDS011;52631;42.208;24.656;2023-02-15T12:51:53;12.35;;;7.10;;
65855;SDS011;52631;42.208;24.656;2023-02-15T12:54:42;11.48;;;6.43;;
65855;SDS011;52631;42.208;24.656;2023-02-15T12:59:52;14.85;;;7.45;;
65855;SDS011;52631;42.208;24.656;2023-02-15T13:02:23;13.10;;;7.25;;
65855;SDS011;52631;42.208;24.656;2023-02-15T13:04:51;9.77;;;6.53;;
65855;SDS011;52631;42.208;24.656;2023-02-15T13:07:16;12.32;;;6.10;;
65855;SDS011;52631;42.208;24.656;2023-02-15T13:09:42;11.85;;;6.72;;
65855;SDS011;52631;42.208;24.656;2023-02-15T13:12:25;13.05;;;6.53;;
65855;SDS011;52631;42.208;24.656;2023-02-15T13:14:52;11.50;;;6.85;;
65855;SDS011;52631;42.208;24.656;2023-02-15T13:17:21;10.95;;;6.40;;
65855;SDS011;52631;42.208;24.656;2023-02-15T13:19:54;10.93;;;6.25;;
65855;SDS011;52631;42.208;24.656;2023-02-15T13:22:22;11.07;;;6.70;;
65855;SDS011;52631;42.208;24.656;2023-02-15T13:24:53;11.60;;;6.15;;
65855;SDS011;52631;42.208;24.656;2023-02-15T13:27:22;11.80;;;6.30;;
65855;SDS011;52631;42.208;24.656;2023-02-15T13:29:52;12.88;;;6.90;;
65855;SDS011;52631;42.208;24.656;2023-02-15T13:35:05;10.85;;;6.10;;
65855;SDS011;52631;42.208;24.656;2023-02-15T13:37:37;11.52;;;6.70;;
65855;SDS011;52631;42.208;24.656;2023-02-15T13:40:15;14.32;;;7.00;;
65855;SDS011;52631;42.208;24.656;2023-02-15T13:48:05;11.80;;;6.72;;
65855;SDS011;52631;42.208;24.656;2023-02-15T13:53:37;17.75;;;6.82;;
65855;SDS011;52631;42.208;24.656;2023-02-15T14:01:45;10.98;;;6.75;;
65855;SDS011;52631;42.208;24.656;2023-02-15T14:12:53;15.55;;;6.80;;
65855;SDS011;52631;42.208;24.656;2023-02-15T14:15:48;9.75;;;5.95;;
65855;SDS011;52631;42.208;24.656;2023-02-15T14:20:44;12.77;;;6.43;;
65855;SDS011;52631;42.208;24.656;2023-02-15T14:28:19;14.52;;;7.45;;
65855;SDS011;52631;42.208;24.656;2023-02-15T14:30:52;10.10;;;5.90;;
65855;SDS011;52631;42.208;24.656;2023-02-15T14:35:57;12.60;;;6.53;;
65855;SDS011;52631;42.208;24.656;2023-02-15T14:41:08;11.35;;;6.60;;
65855;SDS011;52631;42.208;24.656;2023-02-15T14:48:38;11.10;;;6.95;;
65855;SDS011;52631;42.208;24.656;2023-02-15T14:51:10;12.60;;;7.57;;
65855;SDS011;52631;42.208;24.656;2023-02-15T14:54:57;11.05;;;6.25;;
65855;SDS011;52631;42.208;24.656;2023-02-15T15:12:41;13.63;;;7.60;;
65855;SDS011;52631;42.208;24.656;2023-02-15T15:15:32;52.13;;;11.02;;
65855;SDS011;52631;42.208;24.656;2023-02-15T15:18:08;49.85;;;17.27;;
65855;SDS011;52631;42.208;24.656;2023-02-15T15:25:40;23.45;;;10.27;;
65855;SDS011;52631;42.208;24.656;2023-02-15T15:31:00;21.23;;;11.18;;
65855;SDS011;52631;42.208;24.656;2023-02-15T15:48:11;23.48;;;9.57;;
65855;SDS011;52631;42.208;24.656;2023-02-15T15:50:40;18.50;;;8.95;;
65855;SDS011;52631;42.208;24.656;2023-02-15T15:53:06;21.23;;;9.70;;
65855;SDS011;52631;42.208;24.656;2023-02-15T15:55:47;30.60;;;15.63;;
65855;SDS011;52631;42.208;24.656;2023-02-15T15:58:14;35.55;;;15.75;;
65855;SDS011;52631;42.208;24.656;2023-02-15T16:03:14;27.80;;;12.38;;
65855;SDS011;52631;42.208;24.656;2023-02-15T16:05:50;24.98;;;12.25;;
65855;SDS011;52631;42.208;24.656;2023-02-15T16:08:31;25.15;;;11.82;;
65855;SDS011;52631;42.208;24.656;2023-02-15T16:10:58;25.70;;;11.77;;
65855;SDS011;52631;42.208;24.656;2023-02-15T16:13:24;25.73;;;10.48;;
65855;SDS011;52631;42.208;24.656;2023-02-15T16:15:51;28.17;;;13.05;;
65855;SDS011;52631;42.208;24.656;2023-02-15T16:18:19;29.77;;;12.45;;
65855;SDS011;52631;42.208;24.656;2023-02-15T16:20:56;28.83;;;12.60;;
65855;SDS011;52631;42.208;24.656;2023-02-15T16:29:12;45.88;;;20.35;;
65855;SDS011;52631;42.208;24.656;2023-02-15T16:31:42;38.95;;;16.13;;
65855;SDS011;52631;42.208;24.656;2023-02-15T16:34:17;36.55;;;18.63;;
65855;SDS011;52631;42.208;24.656;2023-02-15T16:36:42;39.40;;;18.45;;
65855;SDS011;52631;42.208;24.656;2023-02-15T16:39:09;27.27;;;13.73;;
65855;SDS011;52631;42.208;24.656;2023-02-15T16:41:43;33.13;;;16.00;;
65855;SDS011;52631;42.208;24.656;2023-02-15T16:44:17;33.97;;;16.17;;
65855;SDS011;52631;42.208;24.656;2023-02-15T16:46:46;26.92;;;12.80;;
65855;SDS011;52631;42.208;24.656;2023-02-15T16:49:23;24.17;;;12.18;;
65855;SDS011;52631;42.208;24.656;2023-02-15T16:52:00;24.27;;;12.25;;
65855;SDS011;52631;42.208;24.656;2023-02-15T16:54:27;30.98;;;16.10;;
65855;SDS011;52631;42.208;24.656;2023-02-15T16:56:53;38.72;;;17.10;;
65855;SDS011;52631;42.208;24.656;2023-02-15T17:02:19;35.55;;;16.90;;
65855;SDS011;52631;42.208;24.656;2023-02-15T17:04:59;25.23;;;12.88;;
65855;SDS011;52631;42.208;24.656;2023-02-15T17:07:29;27.98;;;14.57;;
65855;SDS011;52631;42.208;24.656;2023-02-15T17:09:56;23.00;;;12.63;;
65855;SDS011;52631;42.208;24.656;2023-02-15T17:15:26;25.33;;;12.25;;
65855;SDS011;52631;42.208;24.656;2023-02-15T17:18:20;32.50;;;15.85;;
65855;SDS011;52631;42.208;24.656;2023-02-15T17:20:45;43.05;;;19.73;;
65855;SDS011;52631;42.208;24.656;2023-02-15T17:25:55;143.40;;;56.33;;
65855;SDS011;52631;42.208;24.656;2023-02-15T17:28:25;79.60;;;33.22;;
65855;SDS011;52631;42.208;24.656;2023-02-15T17:30:56;70.97;;;30.35;;
65855;SDS011;52631;42.208;24.656;2023-02-15T17:33:24;58.25;;;23.85;;
65855;SDS011;52631;42.208;24.656;2023-02-15T17:36:02;30.98;;;15.85;;
65855;SDS011;52631;42.208;24.656;2023-02-15T17:38:30;28.55;;;14.35;;
65855;SDS011;52631;42.208;24.656;2023-02-15T17:40:56;29.08;;;15.05;;
65855;SDS011;52631;42.208;24.656;2023-02-15T17:43:23;26.98;;;13.15;;
65855;SDS011;52631;42.208;24.656;2023-02-15T17:46:02;31.02;;;14.15;;
65855;SDS011;52631;42.208;24.656;2023-02-15T17:48:33;33.33;;;16.80;;
65855;SDS011;52631;42.208;24.656;2023-02-15T17:51:01;33.00;;;16.27;;
65855;SDS011;52631;42.208;24.656;2023-02-15T17:53:29;35.70;;;17.48;;
65855;SDS011;52631;42.208;24.656;2023-02-15T17:55:54;41.65;;;19.63;;
65855;SDS011;52631;42.208;24.656;2023-02-15T17:58:20;46.33;;;21.17;;
65855;SDS011;52631;42.208;24.656;2023-02-15T18:00:49;46.58;;;20.17;;
65855;SDS011;52631;42.208;24.656;2023-02-15T18:03:42;51.13;;;20.80;;
65855;SDS011;52631;42.208;24.656;2023-02-15T18:06:28;42.92;;;20.02;;
65855;SDS011;52631;42.208;24.656;2023-02-15T18:09:13;34.75;;;17.67;;
65855;SDS011;52631;42.208;24.656;2023-02-15T18:11:58;42.95;;;19.00;;
65855;SDS011;52631;42.208;24.656;2023-02-15T18:14:26;37.45;;;16.42;;
65855;SDS011;52631;42.208;24.656;2023-02-15T18:16:51;33.97;;;15.32;;
65855;SDS011;52631;42.208;24.656;2023-02-15T18:19:22;24.55;;;12.90;;
65855;SDS011;52631;42.208;24.656;2023-02-15T18:21:50;27.20;;;12.27;;
65855;SDS011;52631;42.208;24.656;2023-02-15T18:26:53;37.72;;;19.38;;
65855;SDS011;52631;42.208;24.656;2023-02-15T18:29:19;41.03;;;19.30;;
65855;SDS011;52631;42.208;24.656;2023-02-15T18:31:46;46.50;;;18.77;;
65855;SDS011;52631;42.208;24.656;2023-02-15T18:34:19;35.38;;;18.60;;
65855;SDS011;52631;42.208;24.656;2023-02-15T18:36:49;42.88;;;17.88;;
65855;SDS011;52631;42.208;24.656;2023-02-15T18:42:25;37.05;;;18.75;;
65855;SDS011;52631;42.208;24.656;2023-02-15T18:44:54;34.53;;;18.27;;
65855;SDS011;52631;42.208;24.656;2023-02-15T18:47:23;36.65;;;18.60;;
65855;SDS011;52631;42.208;24.656;2023-02-15T18:49:49;45.78;;;19.67;;
65855;SDS011;52631;42.208;24.656;2023-02-15T18:52:15;56.03;;;24.00;;
65855;SDS011;52631;42.208;24.656;2023-02-15T18:54:43;54.05;;;23.38;;
65855;SDS011;52631;42.208;24.656;2023-02-15T18:57:11;52.17;;;25.27;;
65855;SDS011;52631;42.208;24.656;2023-02-15T18:59:37;51.85;;;23.80;;
65855;SDS011;52631;42.208;24.656;2023-02-15T19:02:05;56.63;;;24.95;;
65855;SDS011;52631;42.208;24.656;2023-02-15T19:04:38;63.63;;;28.48;;
65855;SDS011;52631;42.208;24.656;2023-02-15T19:07:04;79.15;;;33.65;;
65855;SDS011;52631;42.208;24.656;2023-02-15T19:09:33;62.33;;;29.13;;
65855;SDS011;52631;42.208;24.656;2023-02-15T19:11:59;61.90;;;27.60;;
65855;SDS011;52631;42.208;24.656;2023-02-15T19:14:31;47.78;;;23.35;;
65855;SDS011;52631;42.208;24.656;2023-02-15T19:16:58;48.42;;;21.23;;
65855;SDS011;52631;42.208;24.656;2023-02-15T19:19:25;40.15;;;20.15;;
65855;SDS011;52631;42.208;24.656;2023-02-15T19:21:54;40.58;;;19.95;;
65855;SDS011;52631;42.208;24.656;2023-02-15T19:24:21;62.58;;;29.55;;
65855;SDS011;52631;42.208;24.656;2023-02-15T19:26:48;74.70;;;33.38;;
65855;SDS011;52631;42.208;24.656;2023-02-15T19:29:15;66.78;;;28.20;;
65855;SDS011;52631;42.208;24.656;2023-02-15T19:32:10;69.88;;;28.80;;
65855;SDS011;52631;42.208;24.656;2023-02-15T19:34:35;63.50;;;28.25;;
65855;SDS011;52631;42.208;24.656;2023-02-15T19:37:01;68.90;;;28.13;;
65855;SDS011;52631;42.208;24.656;2023-02-15T19:39:28;61.25;;;27.30;;
65855;SDS011;52631;42.208;24.656;2023-02-15T19:41:57;59.72;;;25.30;;
65855;SDS011;52631;42.208;24.656;2023-02-15T19:44:22;58.58;;;23.65;;
65855;SDS011;52631;42.208;24.656;2023-02-15T19:46:48;61.20;;;26.00;;
65855;SDS011;52631;42.208;24.656;2023-02-15T19:49:14;91.57;;;34.05;;
65855;SDS011;52631;42.208;24.656;2023-02-15T19:51:41;50.97;;;24.48;;
65855;SDS011;52631;42.208;24.656;2023-02-15T19:54:28;61.80;;;27.60;;
65855;SDS011;52631;42.208;24.656;2023-02-15T19:56:55;44.38;;;20.75;;
65855;SDS011;52631;42.208;24.656;2023-02-15T19:59:26;42.00;;;19.02;;
65855;SDS011;52631;42.208;24.656;2023-02-15T20:01:56;41.60;;;19.40;;
65855;SDS011;52631;42.208;24.656;2023-02-15T20:04:24;42.08;;;20.35;;
65855;SDS011;52631;42.208;24.656;2023-02-15T20:06:50;39.70;;;18.33;;
65855;SDS011;52631;42.208;24.656;2023-02-15T20:09:21;41.30;;;19.15;;
65855;SDS011;52631;42.208;24.656;2023-02-15T20:11:51;40.30;;;18.90;;
65855;SDS011;52631;42.208;24.656;2023-02-15T20:14:17;36.47;;;17.42;;
65855;SDS011;52631;42.208;24.656;2023-02-15T20:16:43;40.03;;;18.92;;
65855;SDS011;52631;42.208;24.656;2023-02-15T20:19:11;38.28;;;17.83;;
65855;SDS011;52631;42.208;24.656;2023-02-15T20:21:37;39.08;;;18.13;;
65855;SDS011;52631;42.208;24.656;2023-02-15T20:24:05;40.63;;;18.92;;
65855;SDS011;52631;42.208;24.656;2023-02-15T20:26:33;37.33;;;18.33;;
65855;SDS011;52631;42.208;24.656;2023-02-15T20:28:59;42.33;;;17.70;;
65855;SDS011;52631;42.208;24.656;2023-02-15T20:31:24;41.90;;;19.20;;
65855;SDS011;52631;42.208;24.656;2023-02-15T20:33:52;42.35;;;19.25;;
65855;SDS011;52631;42.208;24.656;2023-02-15T20:36:19;41.05;;;19.25;;
65855;SDS011;52631;42.208;24.656;2023-02-15T20:38:47;42.60;;;20.27;;
65855;SDS011;52631;42.208;24.656;2023-02-15T20:41:19;41.25;;;21.08;;
65855;SDS011;52631;42.208;24.656;2023-02-15T20:44:07;47.65;;;21.42;;
65855;SDS011;52631;42.208;24.656;2023-02-15T20:46:33;53.03;;;24.95;;
65855;SDS011;52631;42.208;24.656;2023-02-15T20:48:59;51.10;;;24.60;;
65855;SDS011;52631;42.208;24.656;2023-02-15T20:51:24;52.58;;;24.48;;
65855;SDS011;52631;42.208;24.656;2023-02-15T20:53:55;43.70;;;21.48;;
65855;SDS011;52631;42.208;24.656;2023-02-15T20:56:22;46.55;;;20.92;;
65855;SDS011;52631;42.208;24.656;2023-02-15T20:58:49;48.55;;;22.15;;
65855;SDS011;52631;42.208;24.656;2023-02-15T21:01:16;50.08;;;22.65;;
65855;SDS011;52631;42.208;24.656;2023-02-15T21:03:43;43.53;;;21.02;;
65855;SDS011;52631;42.208;24.656;2023-02-15T21:06:11;47.55;;;19.77;;
65855;SDS011;52631;42.208;24.656;2023-02-15T21:08:42;42.47;;;19.88;;
65855;SDS011;52631;42.208;24.656;2023-02-15T21:11:17;40.70;;;18.33;;
65855;SDS011;52631;42.208;24.656;2023-02-15T21:13:45;39.83;;;18.67;;
65855;SDS011;52631;42.208;24.656;2023-02-15T21:16:11;39.53;;;19.60;;